Flight Track Log - Related Links

Times and Time Zones

All times are in EDT time to prevent confusion due to time zone crossing. See the VH-FGT flight status page for this flight to view local times or setup timezone preferences in your user account.

Time Position Orientation Groundspeed Altitude Reporting Facility
EDT Latitude Longitude Course Direction KTS MPH feet Rate Location/Type
Sun 07:28:56 AM -23.9197 132.8792 82° East 2,700  Level Aus ATC (Calculated)
Sun 07:29:51 AM -23.9119 132.9417 83° East 2,700  Level Aus ATC (Calculated)
Sun 07:31:00 AM -23.9071 132.9869 83° East  Level Estimated
Sun 07:31:38 AM -23.8973 133.0589 259° West 2,700  Level Aus ATC (Calculated)
Sun 07:32:00 AM -23.9029 133.0261 83° East  Level Estimated
Sun 07:32:51 AM -23.8845 133.1613 360° North 2,700  Level Aus ATC (Calculated)
Sun 07:33:00 AM -23.8845 133.1613 84° East 2,700  Level Aus ATC (Calculated)
Sun 07:34:00 AM -23.8805 133.2006 84° East  Level Estimated
Sun 07:35:00 AM -23.8764 133.2399 84° East  Level Estimated
Sun 07:36:00 AM -23.8724 133.2792 84° East  Level Estimated
Sun 07:36:04 AM -23.8533 133.4079 82° East 2,700  Level Aus ATC (Calculated)
Sun 07:37:00 AM -23.8458 133.4667 84° East 2,700  Level Aus ATC (Calculated)
Sun 07:38:00 AM -23.8423 133.5060 84° East  Level Estimated
Sun 07:39:00 AM -23.8388 133.5454 84° East  Level Estimated
Sun 07:40:00 AM -23.8353 133.5847 84° East  Level Estimated
Sun 07:41:00 AM -23.8318 133.6240 84° East  Level Estimated
Sun 07:41:55 AM -23.8061 133.7754 258° West 2,700  Level Aus ATC (Calculated)
Sun 07:42:00 AM -23.8283 133.6633 84° East  Level Estimated
Sun 07:43:00 AM -23.8063 133.8182 90° East  Level Estimated
Sun 07:43:28 AM -23.7927 133.8782 360° North 2,700  Level Aus ATC (Calculated)
Sun 07:44:00 AM -23.7927 133.8782 360° North 1,800 -1,688 Descending Aus ATC (Calculated)
Sun 07:44:00 AM -23.7927 133.8782 122° Southeast 1,800  Level Aus ATC (Calculated)
Sun 07:45:00 AM -23.8067 133.9022 122° Southeast  Level Estimated
Sun 07:46:00 AM -23.8067 133.9022 122° Southeast  Level Estimated
Sun 07:47:00 AM -23.8067 133.9022 31° Northeast  Level Estimated
Sun 07:48:00 AM -23.8067 133.9022 31° Northeast  Level Estimated
Sun 07:49:00 AM -23.8067 133.9022 31° Northeast  Level Estimated
Sun 07:50:00 AM -23.8067 133.9022 122° Southeast  Level Estimated
Sun 07:51:00 AM -23.8067 133.9022 31° Northeast  Level Estimated
Sun 07:52:00 AM -23.8067 133.9022 31° Northeast  Level Estimated
Sun 07:53:00 AM -23.8067 133.9022 31° Northeast  Level Estimated
Sun 07:54:00 AM -23.8067 133.9022 31° Northeast  Level Estimated
Sun 07:55:00 AM -23.8067 133.9022 31° Northeast  Level Estimated
Sun 07:56:00 AM -23.8067 133.9022 31° Northeast  Level Estimated
Sun 07:57:00 AM -23.8067 133.9022 31° Northeast  Level Estimated
Sun 07:58:00 AM -23.8067 133.9022 31° Northeast  Level Estimated
Sun 07:59:00 AM -23.8067 133.9022 31° Northeast  Level Estimated
Sun 08:00:00 AM -23.8067 133.9022 31° Northeast  Level Estimated
Sun 08:01:00 AM -23.8067 133.9022 31° Northeast  Level Estimated
Sun 08:02:00 AM -23.8067 133.9022 31° Northeast  Level Estimated
Sun 08:03:00 AM -23.8067 133.9022 31° Northeast  Level Estimated
Sun 08:04:00 AM -23.8067 133.9022 31° Northeast  Level Estimated
Sun 08:05:00 AM -23.8067 133.9022 31° Northeast  Level Estimated
Sun 08:06:00 AM -23.8067 133.9022 31° Northeast  Level Estimated
Sun 08:07:00 AM -23.8067 133.9022 31° Northeast  Level Estimated
Sun 08:08:00 AM -23.8067 133.9022 31° Northeast  Level Estimated
Sun 08:09:00 AM -23.8067 133.9022 31° Northeast  Level Estimated
Sun 08:10:00 AM -23.8067 133.9022 31° Northeast  Level Estimated
Sun 08:11:00 AM -23.8067 133.9022 31° Northeast  Level Estimated
Sun 08:12:00 AM -23.8067 133.9022 31° Northeast  Level Estimated

Login

Don't have an account? Register now (free) for customized features, flight alerts, and more!